Terminal Aerodrome Forecast
Issued by NWS

Home | Current Version | Previous Version | Text Only | Print | Product List | Glossary On
Versions: 1 2 3 4 5 6 7 8 9 10 11 12 13 14 15 16 17 18 19 20 21 22 23 24
000
FTUS44 KLZK 251931 AAB
TAFLIT
TAF AMD
KLIT 251931Z 2520/2618 00000KT P6SM -RA VCTS BKN040CB
     FM252130 VRB03KT P6SM VCSH BKN040
     FM260100 VRB03KT P6SM BKN250
      TEMPO 2609/2613 4SM BR
     FM261500 25003KT P6SM BKN250=

USA.gov is the U.S. government's official web portal to all federal, state and local government web resources and services.